Buoy 46928

sailwx.info

Track history (hours):
 
Tides and Currents Weather Stations Pressure Air Temp Water Temp Dewpoint Dewpoint Depression Visibility Wind Speed Wind Dir Waves Ship Positions

Drifting buoy 46928

Last reported at 2014-Dec-20 02:30 UTC. Time now 2014-Dec-20 03:44 UTC.
Position N 46°33' W 141°37'.

Barometer 986.1 mb
Water temperature 10.2 ° C

Date/timePositionNaut miles runAvg speedWind from/ knotsBaromVisibWave heightAir tempDewpointWater temp
2014-Dec-20 02:30N 46°33' W 141°37'2 0.8 986.1 10.2
2014-Dec-20 00:30N 46°33' W 141°40'2 1.9 985.0 10.2
2014-Dec-19 23:30N 46°32' W 141°42'0 0.0 984.3 10.2
2014-Dec-19 22:30N 46°32' W 141°42'1 0.4 984.2 10.2
2014-Dec-19 20:30N 46°33' W 141°43'2 0.8 983.8 10.1
2014-Dec-19 17:30N 46°30' W 141°44'0 0.3 984.3 10.1
2014-Dec-19 16:30N 46°30' W 141°44'0 0.1 985.6 10.1
2014-Dec-19 15:30N 46°30' W 141°44'1 0.7 987.6 10.1
2014-Dec-19 14:30N 46°31' W 141°44'0 0.4 990.1 10.1
2014-Dec-19 13:30N 46°31' W 141°44'2 1.8 992.1 10.1
2014-Dec-19 12:30N 46°31' W 141°47'4 1.3 993.8 10.2
2014-Dec-19 09:30N 46°31' W 141°52'0 0.0 995.4 10.2
2014-Dec-19 08:30N 46°31' W 141°52'0 0.1 995.4 10.2
2014-Dec-19 07:30N 46°31' W 141°52'3 3.2 994.4 10.2
2014-Dec-19 06:30N 46°30' W 141°57'1 0.4 994.2 10.2
2014-Dec-19 04:30N 46°30' W 141°56'0 0.0 992.8 10.2
2014-Dec-19 03:30N 46°30' W 141°56'0 0.2 991.6 10.2
2014-Dec-19 02:30N 46°30' W 141°56'0 0.1 990.6 10.2
2014-Dec-19 01:30N 46°30' W 141°56'1 1.0 989.7 10.3
2014-Dec-19 00:30N 46°31' W 141°55'9 1.8 989.1 10.3
2014-Dec-18 19:30N 46°36' W 142°06'0 0.0 987.9 10.3
2014-Dec-18 18:30N 46°36' W 142°06'0 0.0 987.9 10.3
2014-Dec-18 17:30N 46°36' W 142°06'3 3.0 988.1 10.3
2014-Dec-18 16:30N 46°34' W 142°09'1 1.4 988.5 10.3
2014-Dec-18 15:30N 46°33' W 142°11'1 0.6 989.5 10.3
2014-Dec-18 14:30N 46°33' W 142°11'2 1.0 990.0 10.3
2014-Dec-18 12:30N 46°31' W 142°12'1 0.8 990.5 10.3
2014-Dec-18 11:30N 46°32' W 142°11'0 0.0 990.6 10.3
2014-Dec-18 09:30N 46°32' W 142°11'1 0.4 990.9 10.3
2014-Dec-18 06:30N 46°33' W 142°12'1 1.0 991.2 10.4
2014-Dec-18 05:30N 46°33' W 142°13'1 0.8 991.3 10.4
2014-Dec-18 04:30N 46°34' W 142°14'1 1.0 991.9 10.4
2014-Dec-18 03:30N 46°34' W 142°16'2 2.1 991.9 10.4
2014-Dec-18 02:30N 46°34' W 142°18'2 1.0 991.7 10.4
2014-Dec-18 00:30N 46°34' W 142°21'3 1.0 992.3 10.4
2014-Dec-17 21:30N 46°31' W 142°23'3 1.4 994.2 10.4
2014-Dec-17 19:30N 46°30' W 142°20'2 0.8 1000.8 10.4
2014-Dec-17 17:30N 46°28' W 142°21'2 0.5 1002.9 10.4
2014-Dec-17 14:30N 46°30' W 142°21'1 1.1 1007.0 10.4
2014-Dec-17 13:30N 46°30' W 142°22'1 0.6 1007.6 10.4
2014-Dec-17 12:30N 46°30' W 142°23'3 3.2 1008.1 10.4
2014-Dec-17 11:30N 46°29' W 142°27'0 0.0 1008.4 10.4
2014-Dec-17 09:30N 46°29' W 142°27'0 0.0 1006.9 10.5
2014-Dec-17 07:30N 46°29' W 142°27'1 0.6 1005.9 10.5
2014-Dec-17 06:30N 46°29' W 142°28'1 0.2 1005.9 10.5
2014-Dec-17 03:30N 46°29' W 142°28'0 0.2 1003.1 10.6
2014-Dec-17 02:30N 46°29' W 142°29'0 0.3 1003.1 10.6
2014-Dec-17 01:30N 46°29' W 142°28'1 0.8 1002.8 10.5
2014-Dec-17 00:30N 46°30' W 142°29'0 0.0 1002.7 10.5
2014-Dec-16 23:30N 46°30' W 142°29'1 0.7 1002.8 10.5
2014-Dec-16 21:30N 46°31' W 142°31'2 1.8 1001.8 10.4
2014-Dec-16 20:30N 46°31' W 142°33'2 0.8 1001.9 10.4
2014-Dec-16 18:30N 46°30' W 142°35'8 0.4 1002.7 10.4
2014-Dec-15 23:30N 46°29' W 142°46'1 0.6 1004.2 10.4
2014-Dec-15 22:30N 46°28' W 142°46'0 0.0 1003.3 10.4
2014-Dec-15 21:30N 46°28' W 142°46'1 1.4 1003.1 10.4
2014-Dec-15 20:30N 46°28' W 142°48'0 0.0 1003.4 10.4
2014-Dec-15 19:30N 46°28' W 142°48'1 0.4 1003.3 10.4
2014-Dec-15 17:30N 46°28' W 142°47'0 0.4 1001.6 10.4
2014-Dec-15 16:30N 46°28' W 142°46'1 0.7 1001.0 10.4
2014-Dec-15 15:30N 46°28' W 142°46'2 2.0 1001.3 10.4
2014-Dec-15 14:30N 46°29' W 142°48'4 3.8 1001.2 10.4
2014-Dec-15 13:30N 46°30' W 142°53'0 0.0 1001.0 10.4
2014-Dec-15 12:30N 46°30' W 142°53'0 0.0 1000.9 10.4
2014-Dec-15 11:30N 46°30' W 142°53'0 0.0 1000.7 10.4
2014-Dec-15 10:30N 46°30' W 142°53'0 0.0 1000.7 10.4
2014-Dec-15 09:30N 46°30' W 142°53'0 0.0 1000.6 10.4
2014-Dec-15 07:30N 46°30' W 142°53'1 1.2 999.8 10.4
2014-Dec-15 06:30N 46°30' W 142°55'0 0.0 999.2 10.4
2014-Dec-15 05:30N 46°30' W 142°55'1 0.6 998.3 10.4
2014-Dec-15 03:30N 46°29' W 142°56'1 0.6 998.5 10.4
2014-Dec-15 02:30N 46°28' W 142°56'1 1.5 999.9 10.4
2014-Dec-15 01:30N 46°29' W 142°57'0 0.0 1000.8 10.4
2014-Dec-15 00:30N 46°29' W 142°57'1 1.2 1001.5 10.4
2014-Dec-14 23:30N 46°29' W 142°55'3 1.3 1002.3 10.4
2014-Dec-14 21:30N 46°30' W 142°59'1 0.6 1003.5 10.4
2014-Dec-14 19:30N 46°30' W 143°01'0 0.0 1003.9 10.4
2014-Dec-14 18:30N 46°30' W 143°01'2 1.1 1003.4 10.4
2014-Dec-14 16:30N 46°31' W 143°04'0 0.0 1002.5 10.4
2014-Dec-14 15:30N 46°31' W 143°04'2 1.8 1001.7 10.4
2014-Dec-14 14:30N 46°30' W 143°06'0 0.4 1001.0 10.4
2014-Dec-14 13:30N 46°30' W 143°05'1 0.6 1000.2 10.4
2014-Dec-14 11:30N 46°31' W 143°06'2 1.7 999.0 10.4
2014-Dec-14 10:30N 46°32' W 143°08'0 0.0 998.3 10.4
2014-Dec-14 09:30N 46°32' W 143°08'1 0.4 997.4 10.4
2014-Dec-14 07:30N 46°33' W 143°07'1 1.0 995.8 10.4
2014-Dec-14 06:30N 46°34' W 143°08'1 1.0 994.8 10.5
2014-Dec-14 05:30N 46°34' W 143°10'1 0.7 994.0 10.5
2014-Dec-14 04:30N 46°35' W 143°09'1 1.2 993.0 10.6
2014-Dec-14 03:30N 46°35' W 143°11'2 1.1 991.9 10.6
2014-Dec-14 01:30N 46°34' W 143°14'0 0.0 990.4 10.6
2014-Dec-14 00:30N 46°34' W 143°14'0 0.3 989.9 10.6
2014-Dec-13 23:30N 46°34' W 143°13'10 0.4 989.6 10.6
2014-Dec-12 22:30N 46°25' W 143°19'1 0.4 1000.9 10.6
2014-Dec-12 20:30N 46°25' W 143°20'2 0.9 1003.7 10.5
2014-Dec-12 18:30N 46°24' W 143°22'2 0.2 1004.7 10.5
2014-Dec-12 03:30N 46°24' W 143°26'1 0.6 1002.6 10.6
2014-Dec-12 01:30N 46°25' W 143°25'1 1.2 1001.0 10.7
2014-Dec-12 00:30N 46°24' W 143°26'1 0.5 1000.0 10.7
2014-Dec-11 23:30N 46°25' W 143°27'1 0.8 999.2 10.7
2014-Dec-11 22:30N 46°24' W 143°27'1 0.2 998.5 10.7
2014-Dec-11 17:30N 46°24' W 143°28'1 0.6 995.6 10.6
2014-Dec-11 15:30N 46°25' W 143°30'1 0.7 994.5 10.6
2014-Dec-11 14:30N 46°25' W 143°30'0 0.4 994.1 10.6
2014-Dec-11 13:30N 46°26' W 143°30'0 0.4 993.7 10.6
2014-Dec-11 12:30N 46°26' W 143°31'0 0.0 993.7 10.6
2014-Dec-11 11:30N 46°26' W 143°31'2 0.7 993.5 10.6
2014-Dec-11 08:30N 46°25' W 143°33'1 0.2 992.4 10.6
2014-Dec-11 05:30N 46°26' W 143°33'2 0.6 990.7 10.7
2014-Dec-11 01:30N 46°24' W 143°36'0 0.3 987.3 10.8
2014-Dec-11 00:30N 46°24' W 143°36'1 0.9 986.7 10.8
2014-Dec-10 23:30N 46°25' W 143°36'0 0.5 986.3 10.8
2014-Dec-10 22:30N 46°26' W 143°37'0 0.0 986.2 10.8
2014-Dec-10 20:30N 46°26' W 143°37'1 1.1 986.2 10.8
2014-Dec-10 19:30N 46°26' W 143°38'1 0.7 986.0 10.8
2014-Dec-10 17:30N 46°26' W 143°41'0 0.5 984.7 10.8
2014-Dec-10 16:30N 46°27' W 143°41'1 0.9 983.9 10.8
2014-Dec-10 15:30N 46°27' W 143°42'0 0.0 983.4 10.8
2014-Dec-10 14:30N 46°27' W 143°42'1 0.3 983.2 10.8
2014-Dec-10 12:30N 46°27' W 143°43'0 0.0 982.9 10.8
2014-Dec-10 11:30N 46°27' W 143°43'0 0.1 983.0 10.8
2014-Dec-10 07:30N 46°27' W 143°43'0 0.5 981.6 10.8
2014-Dec-10 06:30N 46°27' W 143°44'0 0.3 981.4 10.8
2014-Dec-10 05:30N 46°28' W 143°44'2 0.8 981.0 10.8
2014-Dec-10 03:30N 46°28' W 143°46'1 0.8 980.3 10.8
2014-Dec-10 02:30N 46°28' W 143°47'   980.2 10.8
Track history (hours):
 
Tides and Currents Weather Stations Pressure Air Temp Water Temp Dewpoint Dewpoint Depression Visibility Wind Speed Wind Dir Waves Ship Positions

Drifting buoy 46928

Last reported at 2014-Dec-20 02:30 UTC. Time now 2014-Dec-20 03:44 UTC.
Position N 46°33' W 141°37'.

Barometer 986.1 mb
Water temperature 10.2 ° C

Date/timePositionNaut miles runAvg speedWind from/ knotsBaromVisibWave heightAir tempDewpointWater temp
2014-Dec-20 02:30N 46°33' W 141°37'2 0.8 986.1 10.2
2014-Dec-20 00:30N 46°33' W 141°40'2 1.9 985.0 10.2
2014-Dec-19 23:30N 46°32' W 141°42'0 0.0 984.3 10.2
2014-Dec-19 22:30N 46°32' W 141°42'1 0.4 984.2 10.2
2014-Dec-19 20:30N 46°33' W 141°43'2 0.8 983.8 10.1
2014-Dec-19 17:30N 46°30' W 141°44'0 0.3 984.3 10.1
2014-Dec-19 16:30N 46°30' W 141°44'0 0.1 985.6 10.1
2014-Dec-19 15:30N 46°30' W 141°44'1 0.7 987.6 10.1
2014-Dec-19 14:30N 46°31' W 141°44'0 0.4 990.1 10.1
2014-Dec-19 13:30N 46°31' W 141°44'2 1.8 992.1 10.1
2014-Dec-19 12:30N 46°31' W 141°47'4 1.3 993.8 10.2
2014-Dec-19 09:30N 46°31' W 141°52'0 0.0 995.4 10.2
2014-Dec-19 08:30N 46°31' W 141°52'0 0.1 995.4 10.2
2014-Dec-19 07:30N 46°31' W 141°52'3 3.2 994.4 10.2
2014-Dec-19 06:30N 46°30' W 141°57'1 0.4 994.2 10.2
2014-Dec-19 04:30N 46°30' W 141°56'0 0.0 992.8 10.2
2014-Dec-19 03:30N 46°30' W 141°56'0 0.2 991.6 10.2
2014-Dec-19 02:30N 46°30' W 141°56'0 0.1 990.6 10.2
2014-Dec-19 01:30N 46°30' W 141°56'1 1.0 989.7 10.3
2014-Dec-19 00:30N 46°31' W 141°55'9 1.8 989.1 10.3
2014-Dec-18 19:30N 46°36' W 142°06'0 0.0 987.9 10.3
2014-Dec-18 18:30N 46°36' W 142°06'0 0.0 987.9 10.3
2014-Dec-18 17:30N 46°36' W 142°06'3 3.0 988.1 10.3
2014-Dec-18 16:30N 46°34' W 142°09'1 1.4 988.5 10.3
2014-Dec-18 15:30N 46°33' W 142°11'1 0.6 989.5 10.3
2014-Dec-18 14:30N 46°33' W 142°11'2 1.0 990.0 10.3
2014-Dec-18 12:30N 46°31' W 142°12'1 0.8 990.5 10.3
2014-Dec-18 11:30N 46°32' W 142°11'0 0.0 990.6 10.3
2014-Dec-18 09:30N 46°32' W 142°11'1 0.4 990.9 10.3
2014-Dec-18 06:30N 46°33' W 142°12'1 1.0 991.2 10.4
2014-Dec-18 05:30N 46°33' W 142°13'1 0.8 991.3 10.4
2014-Dec-18 04:30N 46°34' W 142°14'1 1.0 991.9 10.4
2014-Dec-18 03:30N 46°34' W 142°16'2 2.1 991.9 10.4
2014-Dec-18 02:30N 46°34' W 142°18'2 1.0 991.7 10.4
2014-Dec-18 00:30N 46°34' W 142°21'3 1.0 992.3 10.4
2014-Dec-17 21:30N 46°31' W 142°23'3 1.4 994.2 10.4
2014-Dec-17 19:30N 46°30' W 142°20'2 0.8 1000.8 10.4
2014-Dec-17 17:30N 46°28' W 142°21'2 0.5 1002.9 10.4
2014-Dec-17 14:30N 46°30' W 142°21'1 1.1 1007.0 10.4
2014-Dec-17 13:30N 46°30' W 142°22'1 0.6 1007.6 10.4
2014-Dec-17 12:30N 46°30' W 142°23'3 3.2 1008.1 10.4
2014-Dec-17 11:30N 46°29' W 142°27'0 0.0 1008.4 10.4
2014-Dec-17 09:30N 46°29' W 142°27'0 0.0 1006.9 10.5
2014-Dec-17 07:30N 46°29' W 142°27'1 0.6 1005.9 10.5
2014-Dec-17 06:30N 46°29' W 142°28'1 0.2 1005.9 10.5
2014-Dec-17 03:30N 46°29' W 142°28'0 0.2 1003.1 10.6
2014-Dec-17 02:30N 46°29' W 142°29'0 0.3 1003.1 10.6
2014-Dec-17 01:30N 46°29' W 142°28'1 0.8 1002.8 10.5
2014-Dec-17 00:30N 46°30' W 142°29'0 0.0 1002.7 10.5
2014-Dec-16 23:30N 46°30' W 142°29'1 0.7 1002.8 10.5
2014-Dec-16 21:30N 46°31' W 142°31'2 1.8 1001.8 10.4
2014-Dec-16 20:30N 46°31' W 142°33'2 0.8 1001.9 10.4
2014-Dec-16 18:30N 46°30' W 142°35'8 0.4 1002.7 10.4
2014-Dec-15 23:30N 46°29' W 142°46'1 0.6 1004.2 10.4
2014-Dec-15 22:30N 46°28' W 142°46'0 0.0 1003.3 10.4
2014-Dec-15 21:30N 46°28' W 142°46'1 1.4 1003.1 10.4
2014-Dec-15 20:30N 46°28' W 142°48'0 0.0 1003.4 10.4
2014-Dec-15 19:30N 46°28' W 142°48'1 0.4 1003.3 10.4
2014-Dec-15 17:30N 46°28' W 142°47'0 0.4 1001.6 10.4
2014-Dec-15 16:30N 46°28' W 142°46'1 0.7 1001.0 10.4
2014-Dec-15 15:30N 46°28' W 142°46'2 2.0 1001.3 10.4
2014-Dec-15 14:30N 46°29' W 142°48'4 3.8 1001.2 10.4
2014-Dec-15 13:30N 46°30' W 142°53'0 0.0 1001.0 10.4
2014-Dec-15 12:30N 46°30' W 142°53'0 0.0 1000.9 10.4
2014-Dec-15 11:30N 46°30' W 142°53'0 0.0 1000.7 10.4
2014-Dec-15 10:30N 46°30' W 142°53'0 0.0 1000.7 10.4
2014-Dec-15 09:30N 46°30' W 142°53'0 0.0 1000.6 10.4
2014-Dec-15 07:30N 46°30' W 142°53'1 1.2 999.8 10.4
2014-Dec-15 06:30N 46°30' W 142°55'0 0.0 999.2 10.4
2014-Dec-15 05:30N 46°30' W 142°55'1 0.6 998.3 10.4
2014-Dec-15 03:30N 46°29' W 142°56'1 0.6 998.5 10.4
2014-Dec-15 02:30N 46°28' W 142°56'1 1.5 999.9 10.4
2014-Dec-15 01:30N 46°29' W 142°57'0 0.0 1000.8 10.4
2014-Dec-15 00:30N 46°29' W 142°57'1 1.2 1001.5 10.4
2014-Dec-14 23:30N 46°29' W 142°55'3 1.3 1002.3 10.4
2014-Dec-14 21:30N 46°30' W 142°59'1 0.6 1003.5 10.4
2014-Dec-14 19:30N 46°30' W 143°01'0 0.0 1003.9 10.4
2014-Dec-14 18:30N 46°30' W 143°01'2 1.1 1003.4 10.4
2014-Dec-14 16:30N 46°31' W 143°04'0 0.0 1002.5 10.4
2014-Dec-14 15:30N 46°31' W 143°04'2 1.8 1001.7 10.4
2014-Dec-14 14:30N 46°30' W 143°06'0 0.4 1001.0 10.4
2014-Dec-14 13:30N 46°30' W 143°05'1 0.6 1000.2 10.4
2014-Dec-14 11:30N 46°31' W 143°06'2 1.7 999.0 10.4
2014-Dec-14 10:30N 46°32' W 143°08'0 0.0 998.3 10.4
2014-Dec-14 09:30N 46°32' W 143°08'1 0.4 997.4 10.4
2014-Dec-14 07:30N 46°33' W 143°07'1 1.0 995.8 10.4
2014-Dec-14 06:30N 46°34' W 143°08'1 1.0 994.8 10.5
2014-Dec-14 05:30N 46°34' W 143°10'1 0.7 994.0 10.5
2014-Dec-14 04:30N 46°35' W 143°09'1 1.2 993.0 10.6
2014-Dec-14 03:30N 46°35' W 143°11'2 1.1 991.9 10.6
2014-Dec-14 01:30N 46°34' W 143°14'0 0.0 990.4 10.6
2014-Dec-14 00:30N 46°34' W 143°14'0 0.3 989.9 10.6
2014-Dec-13 23:30N 46°34' W 143°13'10 0.4 989.6 10.6
2014-Dec-12 22:30N 46°25' W 143°19'1 0.4 1000.9 10.6
2014-Dec-12 20:30N 46°25' W 143°20'2 0.9 1003.7 10.5
2014-Dec-12 18:30N 46°24' W 143°22'2 0.2 1004.7 10.5
2014-Dec-12 03:30N 46°24' W 143°26'1 0.6 1002.6 10.6
2014-Dec-12 01:30N 46°25' W 143°25'1 1.2 1001.0 10.7
2014-Dec-12 00:30N 46°24' W 143°26'1 0.5 1000.0 10.7
2014-Dec-11 23:30N 46°25' W 143°27'1 0.8 999.2 10.7
2014-Dec-11 22:30N 46°24' W 143°27'1 0.2 998.5 10.7
2014-Dec-11 17:30N 46°24' W 143°28'1 0.6 995.6 10.6
2014-Dec-11 15:30N 46°25' W 143°30'1 0.7 994.5 10.6
2014-Dec-11 14:30N 46°25' W 143°30'0 0.4 994.1 10.6
2014-Dec-11 13:30N 46°26' W 143°30'0 0.4 993.7 10.6
2014-Dec-11 12:30N 46°26' W 143°31'0 0.0 993.7 10.6
2014-Dec-11 11:30N 46°26' W 143°31'2 0.7 993.5 10.6
2014-Dec-11 08:30N 46°25' W 143°33'1 0.2 992.4 10.6
2014-Dec-11 05:30N 46°26' W 143°33'2 0.6 990.7 10.7
2014-Dec-11 01:30N 46°24' W 143°36'0 0.3 987.3 10.8
2014-Dec-11 00:30N 46°24' W 143°36'1 0.9 986.7 10.8
2014-Dec-10 23:30N 46°25' W 143°36'0 0.5 986.3 10.8
2014-Dec-10 22:30N 46°26' W 143°37'0 0.0 986.2 10.8
2014-Dec-10 20:30N 46°26' W 143°37'1 1.1 986.2 10.8
2014-Dec-10 19:30N 46°26' W 143°38'1 0.7 986.0 10.8
2014-Dec-10 17:30N 46°26' W 143°41'0 0.5 984.7 10.8
2014-Dec-10 16:30N 46°27' W 143°41'1 0.9 983.9 10.8
2014-Dec-10 15:30N 46°27' W 143°42'0 0.0 983.4 10.8
2014-Dec-10 14:30N 46°27' W 143°42'1 0.3 983.2 10.8
2014-Dec-10 12:30N 46°27' W 143°43'0 0.0 982.9 10.8
2014-Dec-10 11:30N 46°27' W 143°43'0 0.1 983.0 10.8
2014-Dec-10 07:30N 46°27' W 143°43'0 0.5 981.6 10.8
2014-Dec-10 06:30N 46°27' W 143°44'0 0.3 981.4 10.8
2014-Dec-10 05:30N 46°28' W 143°44'2 0.8 981.0 10.8
2014-Dec-10 03:30N 46°28' W 143°46'1 0.8 980.3 10.8
2014-Dec-10 02:30N 46°28' W 143°47'   980.2 10.8

Dump ship's entire track history